createdAt,value
2023-08-10T00:00:15.732Z,0.00
2023-08-10T00:01:15.824Z,0.00
2023-08-10T00:02:16.481Z,0.00
2023-08-10T00:03:15.732Z,0.00
2023-08-10T00:04:16.445Z,0.00
2023-08-10T00:05:15.666Z,0.00
2023-08-10T00:06:15.654Z,0.00
2023-08-10T00:07:15.643Z,0.00
2023-08-10T00:08:15.632Z,0.00
2023-08-10T00:09:15.627Z,0.00
2023-08-10T00:10:15.617Z,0.00
2023-08-10T00:11:15.639Z,0.00
2023-08-10T00:12:16.458Z,0.00
2023-08-10T00:13:15.584Z,0.00
2023-08-10T00:14:16.212Z,0.00
2023-08-10T00:15:15.652Z,0.00
2023-08-10T00:16:16.377Z,0.00
2023-08-10T00:17:16.315Z,0.00
2023-08-10T00:18:16.299Z,0.00
2023-08-10T00:19:15.617Z,0.00
2023-08-10T00:20:18.133Z,0.00
2023-08-10T00:21:15.593Z,0.00
2023-08-10T00:22:15.513Z,0.00
2023-08-10T00:23:15.572Z,0.00
2023-08-10T00:24:15.529Z,0.00
2023-08-10T00:25:15.545Z,0.00
2023-08-10T00:26:15.557Z,0.00
2023-08-10T00:27:16.151Z,0.00
2023-08-10T00:28:15.651Z,0.00
2023-08-10T00:29:15.583Z,0.00
2023-08-10T00:30:16.369Z,0.00
2023-08-10T00:31:15.448Z,0.00
2023-08-10T00:32:15.510Z,0.00
2023-08-10T00:33:28.153Z,0.00
2023-08-10T00:34:18.138Z,0.00
2023-08-10T00:35:16.266Z,0.00
2023-08-10T00:36:15.406Z,0.00
2023-08-10T00:37:15.445Z,0.00
2023-08-10T00:38:15.389Z,0.00
2023-08-10T00:39:16.333Z,0.00
2023-08-10T00:40:17.297Z,0.00
2023-08-10T00:41:15.370Z,0.00
2023-08-10T00:42:17.139Z,0.00
2023-08-10T00:43:17.137Z,0.00
2023-08-10T00:44:16.320Z,0.00
2023-08-10T00:45:15.348Z,0.00
2023-08-10T00:46:15.386Z,0.00
2023-08-10T00:47:37.246Z,0.00
2023-08-10T00:48:16.318Z,0.00
2023-08-10T00:49:15.358Z,0.00
2023-08-10T00:50:15.538Z,0.00
2023-08-10T00:51:15.352Z,0.00
2023-08-10T00:52:16.866Z,0.00
2023-08-10T00:53:16.146Z,0.00
2023-08-10T00:54:15.252Z,0.00
2023-08-10T00:55:15.267Z,0.00
2023-08-10T00:56:15.287Z,0.00
2023-08-10T00:57:17.325Z,0.00
2023-08-10T00:58:15.992Z,0.00
2023-08-10T00:59:15.341Z,0.00
2023-08-10T01:00:15.318Z,0.00
2023-08-10T01:01:15.278Z,0.00
2023-08-10T01:02:15.303Z,0.00
2023-08-10T01:03:16.007Z,0.00
2023-08-10T01:04:15.846Z,0.00
2023-08-10T01:05:15.223Z,0.00
2023-08-10T01:06:16.234Z,0.00
2023-08-10T01:07:15.659Z,0.00
2023-08-10T01:08:16.139Z,0.00
2023-08-10T01:09:15.315Z,0.00
2023-08-10T01:10:15.741Z,0.00
2023-08-10T01:11:16.001Z,0.00
2023-08-10T01:12:15.901Z,0.00
2023-08-10T01:13:15.939Z,0.00
2023-08-10T01:14:15.148Z,0.00
2023-08-10T01:15:15.179Z,0.00
2023-08-10T01:16:15.234Z,0.00
2023-08-10T01:17:15.249Z,0.00
2023-08-10T01:18:15.177Z,0.00
2023-08-10T01:19:16.735Z,0.00
2023-08-10T01:20:15.087Z,0.00
2023-08-10T01:21:15.127Z,0.00
2023-08-10T01:22:15.850Z,0.00
2023-08-10T01:23:15.127Z,0.00
2023-08-10T01:24:15.641Z,0.00
2023-08-10T01:25:16.582Z,0.00
2023-08-10T01:26:16.001Z,0.00
2023-08-10T01:27:16.681Z,0.00
2023-08-10T01:28:16.400Z,0.00
2023-08-10T01:29:15.072Z,0.00
2023-08-10T01:30:21.670Z,0.00
2023-08-10T01:31:16.683Z,0.00
2023-08-10T01:32:15.837Z,0.00
2023-08-10T01:33:14.986Z,0.00
2023-08-10T01:34:16.432Z,0.00
2023-08-10T01:35:15.734Z,0.00
2023-08-10T01:36:15.056Z,0.00
2023-08-10T01:37:14.965Z,0.00
2023-08-10T01:38:15.650Z,0.00
2023-08-10T01:39:15.222Z,0.00
2023-08-10T01:40:15.189Z,0.00
2023-08-10T01:41:15.652Z,0.00
2023-08-10T01:42:14.898Z,0.00
2023-08-10T01:43:16.307Z,0.00
2023-08-10T01:44:14.910Z,0.00
2023-08-10T01:45:15.180Z,0.00
2023-08-10T01:46:17.086Z,0.00
2023-08-10T01:47:15.944Z,0.00
2023-08-10T01:48:15.151Z,0.00
2023-08-10T01:49:14.914Z,0.00
2023-08-10T01:50:14.880Z,0.00
2023-08-10T01:51:14.936Z,0.00
2023-08-10T01:52:16.653Z,0.00
2023-08-10T01:53:15.107Z,0.00
2023-08-10T01:54:14.940Z,0.00
2023-08-10T01:55:16.079Z,0.00
2023-08-10T01:56:15.184Z,0.00
2023-08-10T01:57:14.838Z,0.00
2023-08-10T01:58:14.767Z,0.00
2023-08-10T01:59:15.754Z,0.00
2023-08-10T02:00:14.800Z,0.00
2023-08-10T02:01:14.867Z,0.00
2023-08-10T02:02:14.800Z,0.00
2023-08-10T02:03:14.779Z,0.00
2023-08-10T02:04:15.717Z,0.00
2023-08-10T02:05:15.654Z,0.00
2023-08-10T02:06:15.918Z,0.00
2023-08-10T02:07:15.744Z,0.00
2023-08-10T02:08:15.417Z,0.00
2023-08-10T02:09:16.411Z,0.00
2023-08-10T02:10:14.726Z,0.00
2023-08-10T02:11:14.706Z,0.00
2023-08-10T02:12:14.721Z,0.00
2023-08-10T02:13:34.296Z,0.00
2023-08-10T02:14:17.233Z,0.00
2023-08-10T02:15:14.628Z,0.00
2023-08-10T02:16:14.664Z,0.00
2023-08-10T02:17:15.247Z,0.00
2023-08-10T02:18:14.601Z,0.00
2023-08-10T02:19:15.649Z,0.00
2023-08-10T02:20:15.486Z,0.00
2023-08-10T02:21:15.189Z,0.00
2023-08-10T02:22:14.642Z,0.00
2023-08-10T02:23:47.806Z,0.00
2023-08-10T02:24:14.574Z,0.00
2023-08-10T02:25:14.560Z,0.00
2023-08-10T02:26:15.443Z,0.00
2023-08-10T02:27:15.708Z,0.00
2023-08-10T02:28:16.454Z,0.00
2023-08-10T02:29:14.763Z,0.00
2023-08-10T02:30:14.633Z,0.00
2023-08-10T02:31:14.675Z,0.00
2023-08-10T02:32:14.702Z,0.00
2023-08-10T02:33:14.577Z,0.00
2023-08-10T02:34:16.595Z,0.00
2023-08-10T02:35:15.431Z,0.00
2023-08-10T02:36:15.202Z,0.00
2023-08-10T02:37:16.201Z,0.00
2023-08-10T02:38:14.661Z,0.00
2023-08-10T02:39:15.702Z,0.00
2023-08-10T02:40:14.489Z,0.00
2023-08-10T02:41:15.707Z,0.00
2023-08-10T02:42:14.616Z,0.00
2023-08-10T02:43:17.697Z,0.00
2023-08-10T02:44:14.568Z,0.00
2023-08-10T02:45:15.611Z,0.00
2023-08-10T02:46:15.720Z,0.00
2023-08-10T02:47:15.321Z,0.00
2023-08-10T02:48:14.651Z,0.00
2023-08-10T02:49:15.522Z,0.00
2023-08-10T02:50:15.266Z,0.00
2023-08-10T02:51:15.525Z,0.00
2023-08-10T02:52:14.464Z,0.00
2023-08-10T02:53:14.626Z,0.00
2023-08-10T02:54:15.360Z,0.00
2023-08-10T02:55:15.073Z,0.00
2023-08-10T02:56:15.714Z,0.00
2023-08-10T02:57:14.533Z,0.00
2023-08-10T03:00:13.480Z,0.00
2023-08-10T03:01:13.422Z,0.00
2023-08-10T03:02:14.659Z,0.00
2023-08-10T03:03:14.595Z,0.00
2023-08-10T03:04:14.679Z,0.00
2023-08-10T03:05:14.569Z,0.00
2023-08-10T03:06:14.584Z,0.00
2023-08-10T03:07:48.121Z,0.00
2023-08-10T03:08:14.552Z,0.00
2023-08-10T03:09:14.550Z,0.00
2023-08-10T03:10:14.542Z,0.00
2023-08-10T03:11:14.539Z,0.00
2023-08-10T03:12:14.526Z,0.00
2023-08-10T03:13:14.529Z,0.00
2023-08-10T03:14:14.513Z,0.00
2023-08-10T03:15:14.531Z,0.00
2023-08-10T03:16:14.543Z,0.00
2023-08-10T03:17:14.479Z,0.00
2023-08-10T03:18:14.526Z,0.00
2023-08-10T03:19:15.217Z,0.00
2023-08-10T03:20:14.590Z,0.00
2023-08-10T03:21:14.443Z,0.00
2023-08-10T03:22:15.666Z,0.00
2023-08-10T03:23:14.432Z,0.00
2023-08-10T03:24:14.441Z,0.00
2023-08-10T03:25:14.479Z,0.00
2023-08-10T03:26:14.499Z,0.00
2023-08-10T03:27:14.496Z,0.00
2023-08-10T03:28:14.458Z,0.00
2023-08-10T03:29:14.980Z,0.00
2023-08-10T03:30:14.441Z,0.00
2023-08-10T03:31:14.481Z,0.00
2023-08-10T03:32:14.616Z,0.00
2023-08-10T03:33:14.416Z,0.00
2023-08-10T03:34:14.358Z,0.00
2023-08-10T03:35:14.465Z,0.00
2023-08-10T03:36:14.347Z,0.00
2023-08-10T03:37:14.327Z,0.00
2023-08-10T03:38:14.381Z,0.00
2023-08-10T03:39:14.309Z,0.00
2023-08-10T03:40:14.372Z,0.00
2023-08-10T03:41:14.334Z,0.00
2023-08-10T03:42:14.292Z,0.00
2023-08-10T03:43:14.345Z,0.00
2023-08-10T03:44:14.292Z,0.00
2023-08-10T03:45:14.270Z,0.00
2023-08-10T03:46:14.326Z,0.00
2023-08-10T03:47:14.297Z,0.00
2023-08-10T04:03:50.242Z,16.88
2023-08-10T04:04:50.216Z,16.88
2023-08-10T04:05:50.179Z,16.88
2023-08-10T04:06:52.718Z,22.50
2023-08-10T04:07:51.327Z,22.50
2023-08-10T04:08:51.336Z,22.50
2023-08-10T04:09:51.338Z,28.12
2023-08-10T04:10:51.358Z,28.12
2023-08-10T04:11:51.374Z,28.12
2023-08-10T04:12:51.371Z,33.75
2023-08-10T04:13:51.355Z,33.75
2023-08-10T04:14:51.264Z,39.38
2023-08-10T04:15:51.280Z,45.00
2023-08-10T04:16:51.334Z,45.00
2023-08-10T04:17:51.299Z,50.62
2023-08-10T04:18:51.255Z,56.25
2023-08-10T04:19:51.453Z,61.88
2023-08-10T04:20:51.283Z,67.50
2023-08-10T04:21:51.249Z,67.50
2023-08-10T04:22:51.229Z,73.12
2023-08-10T04:23:51.237Z,78.75
2023-08-10T04:24:51.183Z,84.38
2023-08-10T04:25:51.230Z,90.00
2023-08-10T04:26:51.731Z,95.62
2023-08-10T04:28:25.361Z,101.25
2023-08-10T04:28:51.159Z,106.88
2023-08-10T04:29:51.217Z,106.88
2023-08-10T04:30:51.215Z,135.00
2023-08-10T04:31:51.169Z,140.62
2023-08-10T04:32:51.210Z,168.75
2023-08-10T04:33:52.087Z,236.25
2023-08-10T04:34:51.239Z,247.50
2023-08-10T04:35:51.176Z,303.75
2023-08-10T04:36:51.200Z,320.62
2023-08-10T04:37:51.226Z,337.50
2023-08-10T04:38:52.005Z,348.75
2023-08-10T04:39:51.117Z,365.62
2023-08-10T04:40:51.602Z,382.50
2023-08-10T04:41:51.147Z,399.38
2023-08-10T04:42:51.043Z,421.88
2023-08-10T04:43:51.129Z,438.75
2023-08-10T04:44:51.082Z,455.62
2023-08-10T04:45:51.074Z,483.75
2023-08-10T04:46:51.073Z,511.88
2023-08-10T04:47:51.085Z,534.38
2023-08-10T04:48:51.065Z,545.62
2023-08-10T04:49:51.309Z,585.00
2023-08-10T04:50:51.005Z,613.12
2023-08-10T04:51:51.751Z,635.62
2023-08-10T04:52:51.027Z,759.38
2023-08-10T04:53:51.044Z,1051.88
2023-08-10T04:54:51.965Z,1231.88
2023-08-10T04:55:51.047Z,1237.50
2023-08-10T04:56:50.999Z,1248.75
2023-08-10T04:57:51.557Z,1293.75
2023-08-10T04:58:50.983Z,1366.88
2023-08-10T04:59:51.527Z,1541.25
2023-08-10T05:00:51.004Z,1687.50
2023-08-10T05:01:51.036Z,1653.75
2023-08-10T05:02:52.238Z,1755.00
2023-08-10T05:03:52.950Z,1839.38
2023-08-10T05:04:51.913Z,1878.75
2023-08-10T05:05:51.068Z,1923.75
2023-08-10T05:06:51.081Z,1923.75
2023-08-10T05:07:50.933Z,2002.50
2023-08-10T05:08:50.909Z,2041.88
2023-08-10T05:09:56.230Z,2058.75
2023-08-10T05:10:52.913Z,2092.50
2023-08-10T05:11:50.836Z,2109.38
2023-08-10T05:12:50.843Z,2098.12
2023-08-10T05:13:50.867Z,2199.38
2023-08-10T05:14:50.847Z,2238.75
2023-08-10T05:15:50.927Z,2283.75
2023-08-10T05:16:50.830Z,2385.00
2023-08-10T05:17:50.912Z,2441.25
2023-08-10T05:18:51.751Z,2424.38
2023-08-10T05:19:50.785Z,2413.12
2023-08-10T05:20:50.824Z,2604.38
2023-08-10T05:21:50.788Z,2553.75
2023-08-10T05:22:50.885Z,2525.62
2023-08-10T05:23:51.080Z,2542.50
2023-08-10T05:24:50.848Z,2503.12
2023-08-10T05:25:51.297Z,2593.12
2023-08-10T05:26:51.334Z,2598.75
2023-08-10T05:27:50.919Z,2368.12
2023-08-10T05:28:50.808Z,2418.75
2023-08-10T05:29:51.006Z,2120.62
2023-08-10T05:30:50.730Z,1884.38
2023-08-10T05:31:51.548Z,2047.50
2023-08-10T05:32:50.784Z,2221.88
2023-08-10T05:33:50.716Z,2351.25
2023-08-10T05:34:50.690Z,2025.00
2023-08-10T05:35:50.746Z,2390.62
2023-08-10T05:36:51.372Z,1524.38
2023-08-10T05:37:51.635Z,703.12
2023-08-10T05:38:50.690Z,635.62
2023-08-10T05:39:51.269Z,641.25
2023-08-10T05:40:51.144Z,1755.00
2023-08-10T05:41:53.591Z,967.50
2023-08-10T05:42:50.619Z,832.50
2023-08-10T05:43:50.614Z,1141.88
2023-08-10T05:44:50.660Z,686.25
2023-08-10T05:45:50.720Z,703.12
2023-08-10T05:46:50.609Z,956.25
2023-08-10T05:47:50.603Z,714.38
2023-08-10T05:48:51.055Z,922.50
2023-08-10T05:49:51.344Z,1153.12
2023-08-10T05:50:50.751Z,686.25
2023-08-10T05:51:50.659Z,832.50
2023-08-10T05:52:50.567Z,1423.12
2023-08-10T05:53:50.573Z,2278.12
2023-08-10T05:54:50.664Z,838.12
2023-08-10T05:55:50.603Z,810.00
2023-08-10T05:56:50.508Z,804.38
2023-08-10T05:57:51.548Z,832.50
2023-08-10T05:58:50.555Z,883.12
2023-08-10T05:59:50.727Z,1001.25
2023-08-10T06:00:50.536Z,3155.62
2023-08-10T06:01:50.495Z,1012.50
2023-08-10T06:02:50.516Z,832.50
2023-08-10T06:03:50.529Z,860.62
2023-08-10T06:04:50.547Z,1513.12
2023-08-10T06:05:51.051Z,3549.38
2023-08-10T06:06:50.431Z,3498.75
2023-08-10T06:07:50.812Z,2013.75
2023-08-10T06:08:50.437Z,2970.00
2023-08-10T06:09:51.430Z,2424.38
2023-08-10T06:10:50.416Z,3937.50
2023-08-10T06:11:50.422Z,3780.00
2023-08-10T06:12:50.408Z,3577.50
2023-08-10T06:13:51.136Z,3650.62
2023-08-10T06:14:50.772Z,3853.12
2023-08-10T06:15:50.431Z,3886.88
2023-08-10T06:16:50.435Z,3813.75
2023-08-10T06:17:50.502Z,3802.50
2023-08-10T06:18:50.356Z,3785.62
2023-08-10T06:19:50.628Z,4010.62
2023-08-10T06:20:50.304Z,3915.00
2023-08-10T06:21:50.390Z,3971.25
2023-08-10T06:22:51.269Z,3960.00
2023-08-10T06:23:50.329Z,3903.75
2023-08-10T06:24:50.341Z,3870.00
2023-08-10T06:25:50.290Z,3948.75
2023-08-10T06:26:50.777Z,4021.88
2023-08-10T06:27:51.146Z,4066.88
2023-08-10T06:28:51.289Z,4005.00
2023-08-10T06:29:50.400Z,3976.88
2023-08-10T06:30:50.989Z,3999.38
2023-08-10T06:31:51.371Z,4050.00
2023-08-10T06:32:50.293Z,3943.12
2023-08-10T06:33:50.253Z,3858.75
2023-08-10T06:34:51.986Z,3886.88
2023-08-10T06:35:50.754Z,3853.12
2023-08-10T06:36:50.246Z,3881.25
2023-08-10T06:37:50.686Z,3915.00
2023-08-10T06:38:50.792Z,3937.50
2023-08-10T06:39:50.238Z,3881.25
2023-08-10T06:41:22.504Z,3971.25
2023-08-10T06:41:50.169Z,3931.88
2023-08-10T06:42:50.180Z,3937.50
2023-08-10T06:43:50.235Z,4066.88
2023-08-10T06:44:50.189Z,3926.25
2023-08-10T06:46:22.607Z,1687.50
2023-08-10T06:49:15.652Z,3886.88
2023-08-10T06:50:17.462Z,3594.38
2023-08-10T06:51:16.790Z,3701.25
2023-08-10T06:52:16.815Z,1777.50
2023-08-10T06:53:16.862Z,2424.38
2023-08-10T06:54:17.274Z,1473.75
2023-08-10T06:55:16.784Z,1361.25
2023-08-10T06:56:16.796Z,4016.25
2023-08-10T06:57:16.790Z,4151.25
2023-08-10T06:59:20.371Z,3948.75
2023-08-10T07:01:52.945Z,4235.62
2023-08-10T07:03:16.765Z,4235.62
2023-08-10T07:04:16.678Z,4297.50
2023-08-10T07:05:16.654Z,4134.38
2023-08-10T07:06:16.706Z,4263.75
2023-08-10T07:07:16.696Z,4235.62
2023-08-10T07:08:16.704Z,4095.00
2023-08-10T07:09:16.666Z,3982.50
2023-08-10T07:10:16.679Z,3915.00
2023-08-10T07:11:16.665Z,3920.62
2023-08-10T07:12:17.508Z,3993.75
2023-08-10T07:13:16.637Z,4021.88
2023-08-10T07:14:16.623Z,3892.50
2023-08-10T07:15:16.644Z,3948.75
2023-08-10T07:16:17.591Z,4016.25
2023-08-10T07:17:16.593Z,4044.38
2023-08-10T07:18:16.667Z,4095.00
2023-08-10T07:19:16.608Z,3993.75
2023-08-10T07:20:16.568Z,4010.62
2023-08-10T07:21:16.578Z,3937.50
2023-08-10T07:22:16.567Z,3875.62
2023-08-10T07:23:16.584Z,3965.62
2023-08-10T07:24:16.547Z,4033.12
2023-08-10T07:25:16.572Z,3976.88
2023-08-10T07:26:16.563Z,4134.38
2023-08-10T07:27:17.398Z,3982.50
2023-08-10T07:28:16.570Z,3915.00
2023-08-10T07:29:16.557Z,4128.75
2023-08-10T07:30:16.545Z,4241.25
2023-08-10T07:31:16.506Z,4241.25
2023-08-10T07:32:16.504Z,4134.38
2023-08-10T07:33:16.493Z,3993.75
2023-08-10T07:34:16.538Z,4095.00
2023-08-10T07:35:16.543Z,4213.12
2023-08-10T07:36:16.604Z,4196.25
2023-08-10T07:37:16.482Z,3819.38
2023-08-10T07:38:16.447Z,4083.75
2023-08-10T07:39:16.450Z,4224.38
2023-08-10T07:40:16.468Z,4185.00
2023-08-10T07:41:16.471Z,4151.25
2023-08-10T07:42:16.451Z,4269.38
2023-08-10T07:45:26.311Z,4348.12
2023-08-10T07:46:26.315Z,3971.25
2023-08-10T07:47:27.498Z,4100.62
2023-08-10T07:48:27.459Z,4308.75
2023-08-10T07:49:28.169Z,4207.50
2023-08-10T07:50:27.439Z,4179.38
2023-08-10T07:51:27.442Z,4190.62
2023-08-10T07:52:28.169Z,4190.62
2023-08-10T07:53:27.406Z,4151.25
2023-08-10T07:54:27.408Z,4055.62
2023-08-10T07:55:28.147Z,4117.50
2023-08-10T07:56:27.458Z,4055.62
2023-08-10T07:57:27.450Z,3903.75
2023-08-10T07:58:27.471Z,3808.12
2023-08-10T07:59:27.414Z,3920.62
2023-08-10T08:00:27.437Z,3988.12
2023-08-10T08:01:27.454Z,4055.62
2023-08-10T08:02:27.399Z,4044.38
2023-08-10T08:03:27.529Z,3898.12
2023-08-10T08:04:27.431Z,3915.00
2023-08-10T08:05:27.333Z,4044.38
2023-08-10T08:06:27.384Z,3988.12
2023-08-10T08:07:27.356Z,4027.50
2023-08-10T08:08:27.309Z,4089.38
2023-08-10T08:09:27.343Z,4038.75
2023-08-10T08:10:28.257Z,3870.00
2023-08-10T08:11:27.310Z,4044.38
2023-08-10T08:12:27.285Z,4027.50
2023-08-10T08:13:27.391Z,3999.38
2023-08-10T08:14:27.311Z,4010.62
2023-08-10T08:15:27.297Z,3870.00
2023-08-10T08:16:27.357Z,3746.25
2023-08-10T08:17:27.338Z,3847.50
2023-08-10T08:18:27.268Z,3763.12
2023-08-10T08:19:27.262Z,3116.25
2023-08-10T08:20:27.253Z,2098.12
2023-08-10T08:21:27.238Z,1777.50
2023-08-10T08:22:28.044Z,2199.38
2023-08-10T08:23:27.270Z,2300.62
2023-08-10T08:24:27.211Z,2570.62
2023-08-10T08:25:27.222Z,3870.00
2023-08-10T08:26:27.225Z,3931.88
2023-08-10T08:27:27.224Z,3971.25
2023-08-10T08:28:27.193Z,3931.88
2023-08-10T08:29:27.203Z,3931.88
2023-08-10T08:30:27.196Z,3571.88
2023-08-10T08:31:27.246Z,3954.38
2023-08-10T08:32:43.222Z,3774.38
2023-08-10T08:33:29.238Z,3633.75
2023-08-10T08:34:27.173Z,3436.88
2023-08-10T08:35:27.162Z,3577.50
2023-08-10T08:36:27.133Z,3543.75
2023-08-10T08:37:27.117Z,3639.38
2023-08-10T08:38:27.106Z,3611.25
2023-08-10T08:39:27.117Z,3853.12
2023-08-10T08:40:27.173Z,3819.38
2023-08-10T08:41:27.106Z,3487.50
2023-08-10T08:42:27.119Z,3690.00
2023-08-10T08:43:27.115Z,3937.50
2023-08-10T08:44:27.108Z,3943.12
2023-08-10T08:45:27.154Z,3982.50
2023-08-10T08:46:27.255Z,3960.00
2023-08-10T08:47:27.215Z,4050.00
2023-08-10T08:48:27.125Z,3971.25
2023-08-10T08:49:27.060Z,3965.62
2023-08-10T08:50:27.030Z,3847.50
2023-08-10T08:51:27.068Z,3706.88
2023-08-10T08:52:27.178Z,3723.75
2023-08-10T08:53:27.019Z,3695.62
2023-08-10T08:54:26.985Z,3549.38
2023-08-10T08:55:27.140Z,2840.62
2023-08-10T08:56:26.977Z,2002.50
2023-08-10T08:57:27.000Z,1513.12
2023-08-10T08:58:27.033Z,1451.25
2023-08-10T08:59:26.986Z,1366.88
2023-08-10T09:00:27.087Z,1254.38
2023-08-10T09:01:27.108Z,1215.00
2023-08-10T09:02:29.465Z,1203.75
2023-08-10T09:03:27.006Z,1186.88
2023-08-10T09:04:27.058Z,1175.62
2023-08-10T09:05:26.958Z,1158.75
2023-08-10T09:06:26.908Z,1141.88
2023-08-10T09:08:00.706Z,1141.88
2023-08-10T09:08:32.368Z,1136.25
2023-08-10T09:09:29.429Z,1130.62
2023-08-10T09:10:31.390Z,1141.88
2023-08-10T09:11:27.625Z,1136.25
2023-08-10T09:12:26.906Z,1130.62
2023-08-10T09:13:27.858Z,1119.38
2023-08-10T09:14:28.709Z,1113.75
2023-08-10T09:15:27.120Z,1119.38
2023-08-10T09:16:27.253Z,1108.12
2023-08-10T09:17:26.842Z,1108.12
2023-08-10T09:18:27.766Z,1102.50
2023-08-10T09:19:26.950Z,1102.50
2023-08-10T09:20:28.231Z,1102.50
2023-08-10T09:21:26.793Z,1125.00
2023-08-10T09:22:26.806Z,1130.62
2023-08-10T09:23:26.801Z,1130.62
2023-08-10T09:24:27.817Z,1125.00
2023-08-10T09:25:26.796Z,1141.88
2023-08-10T09:26:26.816Z,1158.75
2023-08-10T09:27:26.892Z,1198.12
2023-08-10T09:28:27.033Z,1237.50
2023-08-10T09:29:26.750Z,1305.00
2023-08-10T09:30:26.780Z,1372.50
2023-08-10T09:31:26.893Z,1456.88
2023-08-10T09:32:26.798Z,1524.38
2023-08-10T09:33:26.735Z,1518.75
2023-08-10T09:34:26.972Z,1541.25
2023-08-10T09:35:26.689Z,1546.88
2023-08-10T09:36:26.749Z,1485.00
2023-08-10T09:37:27.331Z,1400.62
2023-08-10T09:38:28.597Z,1338.75
2023-08-10T09:39:26.782Z,585.00
2023-08-10T09:40:29.255Z,517.50
2023-08-10T09:41:28.376Z,585.00
2023-08-10T09:42:26.793Z,579.38
2023-08-10T09:43:27.271Z,1136.25
2023-08-10T09:44:27.271Z,658.12
2023-08-10T09:45:27.179Z,787.50
2023-08-10T09:46:26.627Z,624.38
2023-08-10T09:47:26.691Z,579.38
2023-08-10T09:48:26.611Z,708.75
2023-08-10T09:49:26.662Z,1080.00
2023-08-10T09:50:26.665Z,1063.12
2023-08-10T09:51:26.597Z,1046.25
2023-08-10T09:52:26.635Z,1035.00
2023-08-10T09:53:26.584Z,1029.38
2023-08-10T09:54:31.083Z,1023.75
2023-08-10T09:55:26.586Z,1012.50
2023-08-10T09:56:26.589Z,826.88
2023-08-10T09:57:26.745Z,832.50
2023-08-10T09:58:26.540Z,686.25
2023-08-10T09:59:26.595Z,562.50
2023-08-10T10:00:26.546Z,1001.25
2023-08-10T10:01:26.565Z,1023.75
2023-08-10T10:02:26.532Z,1001.25
2023-08-10T10:03:27.320Z,1018.12
2023-08-10T10:04:26.635Z,967.50
2023-08-10T10:05:36.024Z,540.00
2023-08-10T10:06:28.529Z,534.38
2023-08-10T10:07:26.511Z,956.25
2023-08-10T10:08:26.503Z,950.62
2023-08-10T10:09:27.411Z,945.00
2023-08-10T10:10:26.565Z,945.00
2023-08-10T10:11:26.533Z,928.12
2023-08-10T10:12:27.355Z,905.62
2023-08-10T10:13:28.244Z,883.12
2023-08-10T10:14:26.491Z,871.88
2023-08-10T10:15:28.677Z,860.62
2023-08-10T10:16:26.454Z,849.38
2023-08-10T10:17:28.433Z,843.75
2023-08-10T10:18:26.405Z,838.12
2023-08-10T10:19:29.402Z,832.50
2023-08-10T10:20:26.425Z,815.62
2023-08-10T10:21:26.442Z,804.38
2023-08-10T10:22:26.413Z,646.88
2023-08-10T10:23:27.303Z,461.25
2023-08-10T10:24:26.351Z,798.75
2023-08-10T10:25:26.414Z,793.12
2023-08-10T10:26:26.357Z,781.88
2023-08-10T10:27:26.355Z,787.50
2023-08-10T10:28:26.602Z,753.75
2023-08-10T10:29:26.379Z,495.00
2023-08-10T10:30:26.350Z,793.12
2023-08-10T10:31:26.424Z,787.50
2023-08-10T10:32:28.059Z,787.50
2023-08-10T10:33:26.337Z,776.25
2023-08-10T10:34:26.308Z,753.75
2023-08-10T10:35:26.990Z,748.12
2023-08-10T10:36:26.370Z,736.88
2023-08-10T10:37:26.315Z,714.38
2023-08-10T10:38:27.317Z,708.75
2023-08-10T10:39:26.258Z,703.12
2023-08-10T10:40:27.186Z,714.38
2023-08-10T10:41:26.270Z,714.38
2023-08-10T10:42:26.265Z,725.62
2023-08-10T10:43:26.212Z,720.00
2023-08-10T10:44:26.239Z,714.38
2023-08-10T10:45:26.286Z,703.12
2023-08-10T10:46:28.050Z,675.00
2023-08-10T10:47:27.222Z,669.38
2023-08-10T10:48:26.232Z,658.12
2023-08-10T10:49:26.228Z,646.88
2023-08-10T10:50:26.178Z,641.25
2023-08-10T10:51:26.269Z,635.62
2023-08-10T10:52:26.287Z,630.00
2023-08-10T10:53:26.171Z,624.38
2023-08-10T10:55:00.837Z,618.75
2023-08-10T10:55:26.191Z,607.50
2023-08-10T10:56:26.134Z,613.12
2023-08-10T10:58:00.890Z,590.62
2023-08-10T10:58:26.167Z,596.25
2023-08-10T10:59:26.749Z,590.62
2023-08-10T11:00:26.120Z,585.00
2023-08-10T11:01:26.207Z,579.38
2023-08-10T11:02:26.124Z,579.38
2023-08-10T11:03:26.090Z,573.75
2023-08-10T11:04:26.911Z,573.75
2023-08-10T11:05:26.855Z,568.12
2023-08-10T11:06:28.223Z,562.50
2023-08-10T11:07:59.342Z,562.50
2023-08-10T11:08:26.101Z,545.62
2023-08-10T11:09:26.049Z,556.88
2023-08-10T11:10:26.026Z,551.25
2023-08-10T11:11:26.054Z,545.62
2023-08-10T11:12:27.438Z,545.62
2023-08-10T11:13:29.862Z,540.00
2023-08-10T11:14:26.033Z,540.00
2023-08-10T11:15:28.040Z,540.00
2023-08-10T11:16:26.152Z,528.75
2023-08-10T11:17:27.456Z,523.12
2023-08-10T11:18:33.540Z,523.12
2023-08-10T11:19:26.000Z,517.50
2023-08-10T11:20:26.083Z,517.50
2023-08-10T11:21:26.648Z,517.50
2023-08-10T11:22:28.875Z,511.88
2023-08-10T11:23:26.977Z,511.88
2023-08-10T11:24:32.865Z,506.25
2023-08-10T11:25:28.266Z,511.88
2023-08-10T11:26:26.539Z,506.25
2023-08-10T11:27:25.936Z,506.25
2023-08-10T11:28:25.914Z,506.25
2023-08-10T11:29:27.549Z,511.88
2023-08-10T11:30:25.978Z,500.62
2023-08-10T11:31:25.966Z,506.25
2023-08-10T11:32:25.978Z,500.62
2023-08-10T11:33:26.527Z,500.62
2023-08-10T11:34:26.060Z,500.62
2023-08-10T11:35:28.526Z,500.62
2023-08-10T11:36:25.945Z,500.62
2023-08-10T11:37:25.896Z,495.00
2023-08-10T11:38:25.964Z,500.62
2023-08-10T11:39:25.988Z,495.00
2023-08-10T11:40:25.939Z,495.00
2023-08-10T11:41:26.500Z,495.00
2023-08-10T11:42:26.094Z,495.00
2023-08-10T11:43:27.512Z,495.00
2023-08-10T11:44:26.907Z,500.62
2023-08-10T11:45:25.820Z,500.62
2023-08-10T11:46:28.598Z,500.62
2023-08-10T11:47:25.808Z,500.62
2023-08-10T11:48:25.896Z,495.00
2023-08-10T11:49:25.793Z,500.62
2023-08-10T11:50:25.799Z,495.00
2023-08-10T11:51:26.919Z,489.38
2023-08-10T11:52:26.724Z,495.00
2023-08-10T11:53:25.731Z,495.00
2023-08-10T11:54:25.735Z,495.00
2023-08-10T11:55:26.619Z,489.38
2023-08-10T11:56:25.768Z,495.00
2023-08-10T11:57:25.856Z,495.00
2023-08-10T11:58:25.770Z,495.00
2023-08-10T11:59:25.743Z,495.00
2023-08-10T12:00:25.720Z,495.00
2023-08-10T12:01:26.496Z,495.00
2023-08-10T12:02:25.885Z,500.62
2023-08-10T12:03:33.185Z,500.62
2023-08-10T12:04:27.774Z,500.62
2023-08-10T12:05:27.514Z,506.25
2023-08-10T12:06:25.678Z,506.25
2023-08-10T12:07:25.656Z,511.88
2023-08-10T12:08:26.106Z,506.25
2023-08-10T12:09:25.676Z,506.25
2023-08-10T12:10:27.487Z,506.25
2023-08-10T12:11:28.524Z,506.25
2023-08-10T12:12:26.362Z,506.25
2023-08-10T12:13:25.609Z,506.25
2023-08-10T12:14:26.995Z,506.25
2023-08-10T12:15:25.574Z,506.25
2023-08-10T12:16:25.699Z,506.25
2023-08-10T12:17:25.699Z,506.25
2023-08-10T12:18:26.939Z,506.25
2023-08-10T12:19:25.568Z,506.25
2023-08-10T12:20:27.336Z,506.25
2023-08-10T12:21:26.551Z,506.25
2023-08-10T12:22:25.562Z,506.25
2023-08-10T12:23:25.525Z,506.25
2023-08-10T12:24:25.527Z,506.25
2023-08-10T12:25:26.646Z,523.12
2023-08-10T12:26:29.377Z,517.50
2023-08-10T12:27:25.524Z,517.50
2023-08-10T12:28:26.491Z,517.50
2023-08-10T12:29:26.572Z,517.50
2023-08-10T12:30:25.660Z,517.50
2023-08-10T12:31:28.374Z,511.88
2023-08-10T12:32:26.553Z,511.88
2023-08-10T12:33:32.309Z,511.88
2023-08-10T12:34:27.553Z,517.50
2023-08-10T12:35:25.480Z,511.88
2023-08-10T12:36:26.450Z,511.88
2023-08-10T12:37:26.450Z,511.88
2023-08-10T12:38:25.488Z,511.88
2023-08-10T12:39:26.494Z,511.88
2023-08-10T12:40:25.568Z,511.88
2023-08-10T12:41:25.619Z,517.50
2023-08-10T12:42:25.470Z,517.50
2023-08-10T12:43:26.067Z,511.88
2023-08-10T12:44:25.514Z,517.50
2023-08-10T12:45:26.601Z,506.25
2023-08-10T12:46:25.451Z,511.88
2023-08-10T12:47:33.549Z,511.88
2023-08-10T12:48:26.806Z,511.88
2023-08-10T12:49:25.363Z,517.50
2023-08-10T12:50:25.356Z,511.88
2023-08-10T12:51:25.398Z,511.88
2023-08-10T12:52:25.323Z,511.88
2023-08-10T12:53:25.323Z,511.88
2023-08-10T12:54:25.997Z,511.88
2023-08-10T12:55:25.413Z,511.88
2023-08-10T12:56:28.914Z,517.50
2023-08-10T12:57:26.052Z,517.50
2023-08-10T12:58:25.311Z,517.50
2023-08-10T12:59:26.121Z,517.50